createdAt,value
2022-08-01T00:00:01.983Z,20.6
2022-08-01T00:01:02.204Z,20.6
2022-08-01T00:02:02.207Z,20.5
2022-08-01T00:03:02.034Z,20.5
2022-08-01T00:04:02.031Z,20.5
2022-08-01T00:05:01.983Z,20.5
2022-08-01T00:06:02.370Z,20.5
2022-08-01T00:07:01.977Z,20.5
2022-08-01T00:08:01.974Z,20.6
2022-08-01T00:09:01.981Z,20.6
2022-08-01T00:10:02.038Z,20.5
2022-08-01T00:11:02.954Z,20.5
2022-08-01T00:12:02.003Z,20.5
2022-08-01T00:13:01.962Z,20.5
2022-08-01T00:14:02.009Z,20.5
2022-08-01T00:15:01.983Z,20.5
2022-08-01T00:16:02.295Z,20.6
2022-08-01T00:17:07.100Z,20.6
2022-08-01T00:18:02.021Z,20.6
2022-08-01T00:19:02.009Z,20.6
2022-08-01T00:20:01.985Z,20.6
2022-08-01T00:21:02.057Z,20.6
2022-08-01T00:22:01.979Z,20.5
2022-08-01T00:23:01.979Z,20.5
2022-08-01T00:24:02.041Z,20.5
2022-08-01T00:25:02.020Z,20.5
2022-08-01T00:26:02.275Z,20.5
2022-08-01T00:27:01.995Z,20.5
2022-08-01T00:28:02.018Z,20.5
2022-08-01T00:29:01.994Z,20.5
2022-08-01T00:30:13.538Z,20.5
2022-08-01T00:31:02.185Z,20.5
2022-08-01T00:32:02.380Z,20.5
2022-08-01T00:33:01.986Z,20.5
2022-08-01T00:34:01.982Z,20.5
2022-08-01T00:35:01.998Z,20.5
2022-08-01T00:36:02.074Z,20.5
2022-08-01T00:37:02.008Z,20.5
2022-08-01T00:38:02.033Z,20.5
2022-08-01T00:39:02.018Z,20.5
2022-08-01T00:40:01.993Z,20.5
2022-08-01T00:41:02.246Z,20.5
2022-08-01T00:42:02.019Z,20.5
2022-08-01T00:43:01.976Z,20.5
2022-08-01T00:44:01.974Z,20.5
2022-08-01T00:45:02.036Z,20.5
2022-08-01T00:46:02.087Z,20.4
2022-08-01T00:47:01.994Z,20.4
2022-08-01T00:48:01.986Z,20.4
2022-08-01T00:49:02.129Z,20.4
2022-08-01T00:50:01.978Z,20.4
2022-08-01T00:51:02.187Z,20.5
2022-08-01T00:52:02.251Z,20.4
2022-08-01T00:53:02.037Z,20.4
2022-08-01T00:54:01.996Z,20.4
2022-08-01T00:55:01.989Z,20.4
2022-08-01T00:56:02.232Z,20.4
2022-08-01T00:57:01.986Z,20.5
2022-08-01T00:58:05.420Z,20.4
2022-08-01T00:59:02.041Z,20.4
2022-08-01T01:00:02.028Z,20.4
2022-08-01T01:01:03.803Z,20.4
2022-08-01T01:02:02.059Z,20.4
2022-08-01T01:03:02.155Z,20.4
2022-08-01T01:04:01.980Z,20.4
2022-08-01T01:05:02.097Z,20.3
2022-08-01T01:06:02.183Z,20.3
2022-08-01T01:07:02.153Z,20.3
2022-08-01T01:08:02.227Z,20.2
2022-08-01T01:09:03.570Z,20.1
2022-08-01T01:10:02.051Z,20
2022-08-01T01:11:02.337Z,20
2022-08-01T01:12:02.694Z,20
2022-08-01T01:13:02.336Z,20
2022-08-01T01:14:02.054Z,20
2022-08-01T01:15:01.982Z,20
2022-08-01T01:16:01.986Z,20
2022-08-01T01:17:01.983Z,20
2022-08-01T01:18:01.987Z,20.1
2022-08-01T01:19:01.978Z,20.1
2022-08-01T01:20:02.025Z,20.1
2022-08-01T01:21:02.019Z,20.1
2022-08-01T01:22:02.140Z,20.1
2022-08-01T01:23:01.984Z,20.1
2022-08-01T01:24:01.991Z,20.1
2022-08-01T01:25:02.000Z,20.1
2022-08-01T01:26:01.988Z,20.1
2022-08-01T01:27:02.021Z,20
2022-08-01T01:28:02.049Z,20
2022-08-01T01:29:01.997Z,20
2022-08-01T01:30:01.996Z,20
2022-08-01T01:31:02.026Z,20
2022-08-01T01:32:02.225Z,20
2022-08-01T01:33:02.058Z,20
2022-08-01T01:34:02.038Z,20
2022-08-01T01:35:02.034Z,20
2022-08-01T01:36:01.988Z,20
2022-08-01T01:37:01.989Z,20
2022-08-01T01:38:02.003Z,20
2022-08-01T01:39:01.994Z,20
2022-08-01T01:40:01.999Z,20
2022-08-01T01:41:02.051Z,20
2022-08-01T01:42:02.295Z,19.9
2022-08-01T01:43:02.011Z,19.9
2022-08-01T01:44:02.127Z,19.9
2022-08-01T01:45:02.151Z,19.9
2022-08-01T01:46:02.132Z,19.9
2022-08-01T01:47:02.150Z,19.8
2022-08-01T01:48:02.212Z,19.8
2022-08-01T01:49:02.438Z,19.8
2022-08-01T01:50:02.236Z,19.8
2022-08-01T01:51:02.563Z,19.7
2022-08-01T01:52:03.257Z,19.6
2022-08-01T01:53:02.005Z,19.5
2022-08-01T01:54:02.004Z,19.4
2022-08-01T01:55:02.055Z,19.3
2022-08-01T01:56:02.044Z,19.2
2022-08-01T01:57:01.989Z,19.2
2022-08-01T01:58:02.000Z,19
2022-08-01T01:59:02.018Z,18.9
2022-08-01T02:00:01.989Z,18.9
2022-08-01T02:01:02.893Z,18.9
2022-08-01T02:02:05.856Z,18.9
2022-08-01T02:03:02.135Z,18.8
2022-08-01T02:04:01.993Z,18.8
2022-08-01T02:05:02.014Z,18.8
2022-08-01T02:06:01.991Z,18.8
2022-08-01T02:07:02.003Z,18.9
2022-08-01T02:08:02.020Z,18.8
2022-08-01T02:09:02.036Z,18.8
2022-08-01T02:10:02.042Z,18.8
2022-08-01T02:11:02.018Z,18.8
2022-08-01T02:12:08.795Z,18.8
2022-08-01T02:13:02.001Z,18.8
2022-08-01T02:14:01.989Z,18.8
2022-08-01T02:15:02.006Z,18.8
2022-08-01T02:16:02.071Z,18.8
2022-08-01T02:17:02.038Z,18.8
2022-08-01T02:18:02.003Z,18.8
2022-08-01T02:19:02.003Z,18.8
2022-08-01T02:20:02.034Z,18.8
2022-08-01T02:21:02.054Z,18.8
2022-08-01T02:22:02.150Z,18.8
2022-08-01T02:23:02.055Z,18.8
2022-08-01T02:24:05.814Z,18.8
2022-08-01T02:25:02.228Z,18.8
2022-08-01T02:26:10.612Z,18.8
2022-08-01T02:27:02.019Z,18.8
2022-08-01T02:28:01.993Z,18.8
2022-08-01T02:29:01.999Z,18.8
2022-08-01T02:30:02.056Z,18.8
2022-08-01T02:31:02.063Z,18.8
2022-08-01T02:32:02.182Z,18.8
2022-08-01T02:33:01.996Z,18.8
2022-08-01T02:34:02.083Z,18.8
2022-08-01T02:35:01.995Z,18.8
2022-08-01T02:36:32.166Z,18.8
2022-08-01T02:37:02.049Z,18.9
2022-08-01T02:38:02.055Z,18.9
2022-08-01T02:39:02.002Z,18.9
2022-08-01T02:40:01.992Z,18.9
2022-08-01T02:41:02.022Z,18.9
2022-08-01T02:42:01.995Z,18.9
2022-08-01T02:43:01.991Z,18.9
2022-08-01T02:44:02.057Z,18.9
2022-08-01T02:45:02.043Z,18.9
2022-08-01T02:46:02.001Z,19
2022-08-01T02:47:02.024Z,19
2022-08-01T02:48:02.021Z,19
2022-08-01T02:49:02.127Z,19
2022-08-01T02:50:02.014Z,19
2022-08-01T02:51:02.045Z,19.1
2022-08-01T02:52:02.340Z,19.1
2022-08-01T02:53:02.010Z,19.1
2022-08-01T02:54:02.009Z,19.1
2022-08-01T02:55:02.032Z,19.1
2022-08-01T02:56:01.994Z,19.1
2022-08-01T02:57:01.999Z,19.1
2022-08-01T02:58:02.037Z,19.2
2022-08-01T02:59:02.054Z,19.2
2022-08-01T03:00:02.015Z,19.1
2022-08-01T03:01:02.113Z,19.1
2022-08-01T03:02:03.089Z,19.1
2022-08-01T03:03:02.001Z,19.1
2022-08-01T03:04:02.021Z,19.1
2022-08-01T03:05:02.074Z,19.1
2022-08-01T03:06:02.050Z,19.1
2022-08-01T03:07:02.224Z,19.1
2022-08-01T03:08:03.646Z,19.1
2022-08-01T03:09:02.374Z,19.1
2022-08-01T03:10:01.996Z,19.1
2022-08-01T03:11:02.010Z,19.1
2022-08-01T03:12:02.077Z,19.1
2022-08-01T03:13:02.056Z,19.1
2022-08-01T03:14:02.009Z,19.1
2022-08-01T03:15:02.013Z,19.1
2022-08-01T03:16:02.003Z,19.1
2022-08-01T03:17:02.007Z,19.1
2022-08-01T03:18:02.011Z,19.1
2022-08-01T03:19:02.064Z,19
2022-08-01T03:20:02.051Z,19.1
2022-08-01T03:21:02.590Z,19.1
2022-08-01T03:22:02.112Z,19.1
2022-08-01T03:23:01.983Z,19.1
2022-08-01T03:24:02.015Z,19.1
2022-08-01T03:25:02.000Z,19.1
2022-08-01T03:26:02.064Z,19.1
2022-08-01T03:27:02.107Z,19.1
2022-08-01T03:28:01.997Z,19.2
2022-08-01T03:29:02.014Z,19.1
2022-08-01T03:30:02.137Z,19.1
2022-08-01T03:31:02.026Z,19.1
2022-08-01T03:32:02.171Z,19.1
2022-08-01T03:33:02.053Z,19.2
2022-08-01T03:34:05.769Z,19.2
2022-08-01T03:35:02.088Z,19.2
2022-08-01T03:36:02.340Z,19.2
2022-08-01T03:37:02.184Z,19.2
2022-08-01T03:38:17.455Z,19.2
2022-08-01T03:39:02.115Z,19.2
2022-08-01T03:40:02.088Z,19.2
2022-08-01T03:41:02.476Z,19.2
2022-08-01T03:42:02.315Z,19.2
2022-08-01T03:43:02.012Z,19.2
2022-08-01T03:44:02.307Z,19.2
2022-08-01T03:45:02.035Z,19.2
2022-08-01T03:46:02.034Z,19.2
2022-08-01T03:47:02.054Z,19.3
2022-08-01T03:48:02.059Z,19.2
2022-08-01T03:49:02.065Z,19.2
2022-08-01T03:50:02.022Z,19.2
2022-08-01T03:51:02.009Z,19.1
2022-08-01T03:52:02.084Z,19.1
2022-08-01T03:53:02.030Z,19.1
2022-08-01T03:54:02.034Z,19.1
2022-08-01T03:55:02.061Z,19.2
2022-08-01T03:56:01.986Z,19.1
2022-08-01T03:57:02.011Z,19.1
2022-08-01T03:58:02.004Z,19.1
2022-08-01T03:59:02.027Z,19.1
2022-08-01T04:00:02.030Z,19.1
2022-08-01T04:01:02.071Z,19.1
2022-08-01T04:02:02.063Z,19.1
2022-08-01T04:03:02.021Z,19.1
2022-08-01T04:04:02.004Z,19.1
2022-08-01T04:05:02.025Z,19
2022-08-01T04:06:02.053Z,19
2022-08-01T04:07:02.032Z,19
2022-08-01T04:08:02.075Z,19
2022-08-01T04:09:02.071Z,19
2022-08-01T04:10:02.016Z,19
2022-08-01T04:11:02.026Z,19
2022-08-01T04:12:02.327Z,19
2022-08-01T04:13:02.010Z,19
2022-08-01T04:14:02.027Z,19
2022-08-01T04:15:02.126Z,19
2022-08-01T04:16:02.075Z,19
2022-08-01T04:17:02.031Z,19.1
2022-08-01T04:18:02.030Z,19.1
2022-08-01T04:19:02.032Z,19.1
2022-08-01T04:20:02.033Z,19.1
2022-08-01T04:21:02.036Z,19.1
2022-08-01T04:22:02.156Z,19.1
2022-08-01T04:23:02.072Z,19.1
2022-08-01T04:24:02.025Z,19.1
2022-08-01T04:25:02.036Z,19.1
2022-08-01T04:26:02.097Z,19.1
2022-08-01T04:27:02.026Z,19.2
2022-08-01T04:28:02.027Z,19.2
2022-08-01T04:29:02.064Z,19.2
2022-08-01T04:30:02.075Z,19.2
2022-08-01T04:31:02.432Z,19.2
2022-08-01T04:32:02.023Z,19.2
2022-08-01T04:33:02.011Z,19.2
2022-08-01T04:34:02.008Z,19.2
2022-08-01T04:35:02.024Z,19.2
2022-08-01T04:36:04.903Z,19.2
2022-08-01T04:37:02.077Z,19.1
2022-08-01T04:38:02.015Z,19.1
2022-08-01T04:39:02.036Z,19.1
2022-08-01T04:40:02.030Z,19.1
2022-08-01T04:41:08.563Z,19.1
2022-08-01T04:42:02.019Z,19.1
2022-08-01T04:43:02.065Z,19.2
2022-08-01T04:44:02.072Z,19.3
2022-08-01T04:45:02.006Z,19.3
2022-08-01T04:46:02.011Z,19.3
2022-08-01T04:47:02.112Z,19.3
2022-08-01T04:48:02.044Z,19.3
2022-08-01T04:49:02.136Z,19.3
2022-08-01T04:50:02.092Z,19.4
2022-08-01T04:51:02.065Z,19.4
2022-08-01T04:52:02.040Z,19.4
2022-08-01T04:53:02.003Z,19.4
2022-08-01T04:54:02.017Z,19.4
2022-08-01T04:55:02.018Z,19.4
2022-08-01T04:56:02.023Z,19.4
2022-08-01T04:57:02.064Z,19.4
2022-08-01T04:58:02.065Z,19.4
2022-08-01T04:59:02.024Z,19.5
2022-08-01T05:00:02.028Z,19.4
2022-08-01T05:01:02.095Z,19.4
2022-08-01T05:02:02.029Z,19.4
2022-08-01T05:03:02.024Z,19.4
2022-08-01T05:04:02.054Z,19.5
2022-08-01T05:05:02.063Z,19.5
2022-08-01T05:06:02.031Z,19.4
2022-08-01T05:07:02.034Z,19.5
2022-08-01T05:08:02.015Z,19.4
2022-08-01T05:09:02.016Z,19.4
2022-08-01T05:10:02.026Z,19.4
2022-08-01T05:11:02.067Z,19.4
2022-08-01T05:12:02.081Z,19.4
2022-08-01T05:13:02.033Z,19.4
2022-08-01T05:14:02.021Z,19.4
2022-08-01T05:15:02.093Z,19.5
2022-08-01T05:16:02.044Z,19.5
2022-08-01T05:17:02.017Z,19.5
2022-08-01T05:18:02.059Z,19.6
2022-08-01T05:19:02.056Z,19.6
2022-08-01T05:20:02.030Z,19.5
2022-08-01T05:21:02.031Z,19.5
2022-08-01T05:22:02.011Z,19.5
2022-08-01T05:23:02.029Z,19.5
2022-08-01T05:24:02.037Z,19.5
2022-08-01T05:25:02.065Z,19.4
2022-08-01T05:26:02.085Z,19.4
2022-08-01T05:27:02.029Z,19.4
2022-08-01T05:28:02.024Z,19.5
2022-08-01T05:29:02.025Z,19.5
2022-08-01T05:30:02.028Z,19.5
2022-08-01T05:31:02.035Z,19.5
2022-08-01T05:32:02.090Z,19.5
2022-08-01T05:33:02.076Z,19.6
2022-08-01T05:34:02.023Z,19.7
2022-08-01T05:35:02.018Z,19.7
2022-08-01T05:36:02.066Z,19.8
2022-08-01T05:37:02.017Z,19.9
2022-08-01T05:38:02.029Z,20
2022-08-01T05:39:02.084Z,19.9
2022-08-01T05:40:02.076Z,19.8
2022-08-01T05:41:02.002Z,19.8
2022-08-01T05:42:02.118Z,19.8
2022-08-01T05:43:02.027Z,19.8
2022-08-01T05:44:02.029Z,19.7
2022-08-01T05:45:02.046Z,19.7
2022-08-01T05:46:02.066Z,19.6
2022-08-01T05:47:02.063Z,19.6
2022-08-01T05:48:02.043Z,19.7
2022-08-01T05:49:02.134Z,19.6
2022-08-01T05:50:02.048Z,19.6
2022-08-01T05:51:02.027Z,19.5
2022-08-01T05:52:02.082Z,19.5
2022-08-01T05:53:02.101Z,19.5
2022-08-01T05:54:02.128Z,19.5
2022-08-01T05:55:02.030Z,19.5
2022-08-01T05:56:02.041Z,19.5
2022-08-01T05:57:02.043Z,19.5
2022-08-01T05:58:02.086Z,19.6
2022-08-01T05:59:02.038Z,19.6
2022-08-01T06:00:02.095Z,19.5
2022-08-01T06:01:02.076Z,19.6
2022-08-01T06:02:02.148Z,19.6
2022-08-01T06:03:02.039Z,19.5
2022-08-01T06:04:02.027Z,19.6
2022-08-01T06:05:02.058Z,19.7
2022-08-01T06:06:02.112Z,19.7
2022-08-01T06:07:02.159Z,19.8
2022-08-01T06:08:02.086Z,19.9
2022-08-01T06:09:02.313Z,19.9
2022-08-01T06:10:02.270Z,19.9
2022-08-01T06:11:02.059Z,19.9
2022-08-01T06:12:02.025Z,20
2022-08-01T06:13:02.034Z,20
2022-08-01T06:14:02.068Z,20.1
2022-08-01T06:15:02.099Z,20.2
2022-08-01T06:16:02.044Z,20.3
2022-08-01T06:17:02.040Z,20.4
2022-08-01T06:18:02.084Z,20.5
2022-08-01T06:19:02.044Z,20.5
2022-08-01T06:20:02.035Z,20.5
2022-08-01T06:21:02.097Z,20.5
2022-08-01T06:22:02.090Z,20.4
2022-08-01T06:23:05.843Z,20.5
2022-08-01T06:24:02.040Z,20.5
2022-08-01T06:25:02.095Z,20.6
2022-08-01T06:26:02.050Z,20.7
2022-08-01T06:27:02.032Z,20.7
2022-08-01T06:28:02.080Z,20.6
2022-08-01T06:29:02.080Z,20.7
2022-08-01T06:30:02.040Z,20.7
2022-08-01T06:31:02.025Z,20.5
2022-08-01T06:32:02.029Z,20.5
2022-08-01T06:33:02.031Z,20.5
2022-08-01T06:34:02.029Z,20.4
2022-08-01T06:35:02.099Z,20.5
2022-08-01T06:36:02.093Z,20.6
2022-08-01T06:37:02.034Z,20.6
2022-08-01T06:38:02.039Z,20.7
2022-08-01T06:39:02.116Z,20.7
2022-08-01T06:40:02.042Z,20.5
2022-08-01T06:41:02.036Z,20.4
2022-08-01T06:42:02.080Z,20.5
2022-08-01T06:43:02.248Z,20.6
2022-08-01T06:44:02.040Z,20.6
2022-08-01T06:45:02.028Z,20.7
2022-08-01T06:46:02.024Z,20.7
2022-08-01T06:47:02.057Z,20.8
2022-08-01T06:48:02.050Z,20.7
2022-08-01T06:49:02.200Z,20.7
2022-08-01T06:50:02.077Z,20.6
2022-08-01T06:51:02.051Z,20.4
2022-08-01T06:52:02.042Z,20.3
2022-08-01T06:53:02.025Z,20.3
2022-08-01T06:54:02.032Z,20.1
2022-08-01T06:55:02.027Z,20.2
2022-08-01T06:56:02.117Z,20.2
2022-08-01T06:57:02.110Z,20.3
2022-08-01T06:58:02.040Z,20.5
2022-08-01T06:59:02.050Z,20.6
2022-08-01T07:00:02.031Z,20.7
2022-08-01T07:01:02.081Z,20.8
2022-08-01T07:02:02.048Z,20.9
2022-08-01T07:03:02.081Z,21
2022-08-01T07:04:02.087Z,21
2022-08-01T07:05:02.088Z,21.1
2022-08-01T07:06:02.031Z,21.1
2022-08-01T07:07:02.055Z,21.1
2022-08-01T07:08:02.027Z,20.9
2022-08-01T07:09:08.278Z,20.9
2022-08-01T07:10:02.066Z,20.8
2022-08-01T07:11:02.070Z,20.9
2022-08-01T07:12:02.043Z,21.1
2022-08-01T07:13:02.035Z,21.1
2022-08-01T07:14:02.022Z,21.1
2022-08-01T07:15:02.045Z,21.3
2022-08-01T07:16:02.071Z,21.3
2022-08-01T07:17:02.099Z,21.2
2022-08-01T07:18:02.086Z,21.3
2022-08-01T07:19:02.224Z,21.4
2022-08-01T07:20:02.052Z,21.5
2022-08-01T07:21:02.179Z,21.5
2022-08-01T07:22:02.042Z,21.6
2022-08-01T07:23:02.356Z,21.5
2022-08-01T07:24:02.088Z,21.5
2022-08-01T07:25:02.095Z,21.6
2022-08-01T07:26:02.035Z,21.6
2022-08-01T07:27:23.232Z,21.4
2022-08-01T07:28:02.148Z,21.4
2022-08-01T07:29:02.037Z,21.4
2022-08-01T07:30:02.036Z,21.4
2022-08-01T07:31:02.093Z,21.2
2022-08-01T07:32:02.092Z,21.5
2022-08-01T07:33:02.052Z,21.5
2022-08-01T07:34:02.057Z,21.5
2022-08-01T07:35:02.037Z,21.5
2022-08-01T07:36:02.050Z,21.5
2022-08-01T07:37:02.045Z,21.5
2022-08-01T07:38:02.104Z,21.4
2022-08-01T07:39:02.089Z,21.5
2022-08-01T07:40:02.070Z,21.5
2022-08-01T07:41:02.021Z,21.5
2022-08-01T07:42:07.510Z,21.6
2022-08-01T07:43:02.039Z,21.6
2022-08-01T07:44:04.789Z,21.7
2022-08-01T07:45:02.098Z,21.7
2022-08-01T07:46:02.086Z,21.8
2022-08-01T07:47:02.060Z,21.8
2022-08-01T07:48:02.028Z,21.9
2022-08-01T07:49:02.127Z,22.1
2022-08-01T07:50:02.634Z,22.3
2022-08-01T07:51:02.079Z,22.6
2022-08-01T07:52:13.581Z,22.5
2022-08-01T07:53:02.082Z,22.6
2022-08-01T07:54:02.047Z,22.5
2022-08-01T07:55:02.053Z,22.4
2022-08-01T07:56:02.055Z,22.3
2022-08-01T07:57:02.079Z,22.5
2022-08-01T07:58:02.043Z,22.6
2022-08-01T07:59:02.317Z,22.5
2022-08-01T08:00:02.304Z,22.6
2022-08-01T08:01:02.055Z,22.6
2022-08-01T08:02:02.193Z,22.8
2022-08-01T08:03:02.036Z,22.9
2022-08-01T08:04:02.152Z,22.9
2022-08-01T08:05:02.049Z,22.7
2022-08-01T08:06:02.114Z,22.9
2022-08-01T08:07:02.118Z,22.8
2022-08-01T08:08:02.049Z,22.8
2022-08-01T08:09:02.053Z,23
2022-08-01T08:10:02.098Z,23.2
2022-08-01T08:11:02.060Z,23.4
2022-08-01T08:12:02.061Z,23.3
2022-08-01T08:13:02.163Z,23.2
2022-08-01T08:14:02.088Z,23.2
2022-08-01T08:15:02.090Z,23.3
2022-08-01T08:16:02.042Z,23.4
2022-08-01T08:17:02.388Z,23.5
2022-08-01T08:18:02.054Z,23.2
2022-08-01T08:19:02.093Z,22.9
2022-08-01T08:20:02.102Z,22.9
2022-08-01T08:21:06.470Z,22.8
2022-08-01T08:22:02.051Z,22.9
2022-08-01T08:23:02.061Z,22.6
2022-08-01T08:24:02.118Z,22.5
2022-08-01T08:25:02.042Z,22.5
2022-08-01T08:26:02.050Z,22.5
2022-08-01T08:27:02.105Z,22.3
2022-08-01T08:28:02.097Z,22.2
2022-08-01T08:29:02.058Z,22.2
2022-08-01T08:30:02.051Z,22.2
2022-08-01T08:31:02.050Z,22.3
2022-08-01T08:32:02.399Z,22.4
2022-08-01T08:33:02.146Z,22.4
2022-08-01T08:34:02.176Z,22.5
2022-08-01T08:35:02.260Z,22.7
2022-08-01T08:36:02.169Z,22.9
2022-08-01T08:37:02.261Z,22.9
2022-08-01T08:38:02.297Z,22.9
2022-08-01T08:39:02.470Z,22.9
2022-08-01T08:40:02.341Z,22.9
2022-08-01T08:41:02.301Z,22.9
2022-08-01T08:42:02.336Z,23
2022-08-01T08:43:02.067Z,22.9
2022-08-01T08:44:02.052Z,22.8
2022-08-01T08:45:02.973Z,22.8
2022-08-01T08:46:02.066Z,22.9
2022-08-01T08:47:02.296Z,23
2022-08-01T08:48:02.241Z,23.1
2022-08-01T08:49:02.115Z,23.1
2022-08-01T08:50:02.066Z,23
2022-08-01T08:51:02.101Z,23
2022-08-01T08:52:02.057Z,23.1
2022-08-01T08:53:02.056Z,23
2022-08-01T08:54:02.054Z,23.1
2022-08-01T08:55:02.138Z,23.2
2022-08-01T08:56:02.093Z,23.3
2022-08-01T08:57:02.077Z,23.3
2022-08-01T08:58:02.060Z,23.2
2022-08-01T08:59:02.162Z,23.1
2022-08-01T09:00:02.053Z,23.1
2022-08-01T09:01:02.374Z,23.2
2022-08-01T09:02:02.167Z,23.2
2022-08-01T09:03:02.162Z,23.4
2022-08-01T09:04:02.056Z,23.3
2022-08-01T09:05:02.052Z,23.3
2022-08-01T09:06:02.173Z,23.6
2022-08-01T09:07:02.143Z,23.6
2022-08-01T09:08:02.214Z,23.8
2022-08-01T09:09:02.111Z,23.7
2022-08-01T09:10:02.228Z,23.8
2022-08-01T09:11:02.249Z,23.8
2022-08-01T09:12:02.415Z,24
2022-08-01T09:13:02.056Z,24.1
2022-08-01T09:14:02.231Z,24.3
2022-08-01T09:15:02.307Z,24.3
2022-08-01T09:16:02.364Z,24.3
2022-08-01T09:17:02.372Z,24.1
2022-08-01T09:18:02.030Z,24
2022-08-01T09:19:02.059Z,24
2022-08-01T09:20:02.539Z,24
2022-08-01T09:21:02.062Z,24
2022-08-01T09:22:02.073Z,23.9
2022-08-01T09:23:02.117Z,23.8
2022-08-01T09:24:02.134Z,23.5
2022-08-01T09:25:02.091Z,23.4
2022-08-01T09:26:02.068Z,23.4
2022-08-01T09:27:03.265Z,23.5
2022-08-01T09:28:02.141Z,23.5
2022-08-01T09:29:02.094Z,23.6
2022-08-01T09:30:02.365Z,23.6
2022-08-01T09:31:02.107Z,23.6
2022-08-01T09:32:02.081Z,23.5
2022-08-01T09:33:11.270Z,23.3
2022-08-01T09:34:02.063Z,23.3
2022-08-01T09:35:02.198Z,23.2
2022-08-01T09:36:02.086Z,23.3
2022-08-01T09:37:02.410Z,23.3
2022-08-01T09:38:02.133Z,23.4
2022-08-01T09:39:02.072Z,23.3
2022-08-01T09:40:02.248Z,23.5
2022-08-01T09:41:02.230Z,23.7
2022-08-01T09:42:02.096Z,23.6
2022-08-01T09:43:02.069Z,23.6
2022-08-01T09:44:02.419Z,23.7
2022-08-01T09:45:02.110Z,24
2022-08-01T09:46:02.082Z,24
2022-08-01T09:47:07.281Z,24.5
2022-08-01T09:48:02.058Z,24.5
2022-08-01T09:49:02.139Z,24.2
2022-08-01T09:50:03.673Z,23.9
2022-08-01T09:51:07.340Z,23.8
2022-08-01T09:52:02.094Z,24
2022-08-01T09:53:02.084Z,24.1
2022-08-01T09:54:02.068Z,24.3
2022-08-01T09:55:02.100Z,24.4
2022-08-01T09:56:02.070Z,24.3
2022-08-01T09:57:02.074Z,24.4
2022-08-01T09:58:02.121Z,24.4
2022-08-01T09:59:02.861Z,24.8
2022-08-01T10:00:02.363Z,24.7
2022-08-01T10:01:02.064Z,24.7
2022-08-01T10:02:02.076Z,24.7
2022-08-01T10:03:10.185Z,24.7
2022-08-01T10:04:02.173Z,25.1
2022-08-01T10:05:03.647Z,25.3
2022-08-01T10:06:02.114Z,25.4
2022-08-01T10:07:02.079Z,25.4
2022-08-01T10:08:02.076Z,25.5
2022-08-01T10:09:02.106Z,25.8
2022-08-01T10:10:02.090Z,25.8
2022-08-01T10:11:02.072Z,25.4
2022-08-01T10:12:02.134Z,24.8
2022-08-01T10:13:03.321Z,24.8
2022-08-01T10:14:02.078Z,24.7
2022-08-01T10:15:02.069Z,24.8
2022-08-01T10:16:02.084Z,24.9
2022-08-01T10:17:04.872Z,25.1
2022-08-01T10:18:02.058Z,25.2
2022-08-01T10:19:02.766Z,25.4
2022-08-01T10:20:02.152Z,25.4
2022-08-01T10:21:02.092Z,25.6
2022-08-01T10:22:02.082Z,25.8
2022-08-01T10:23:05.889Z,26
2022-08-01T10:24:03.260Z,26.1
2022-08-01T10:25:02.089Z,25.8
2022-08-01T10:26:02.130Z,25.6
2022-08-01T10:27:05.929Z,25.5
2022-08-01T10:28:02.161Z,25.4
2022-08-01T10:29:02.099Z,25.2
2022-08-01T10:30:07.440Z,25.1
2022-08-01T10:31:02.085Z,24.9
2022-08-01T10:32:02.091Z,25.1
2022-08-01T10:33:02.138Z,25
2022-08-01T10:34:02.146Z,25.1
2022-08-01T10:35:06.359Z,24.9
2022-08-01T10:36:02.097Z,25
2022-08-01T10:37:02.144Z,25.1
2022-08-01T10:38:02.087Z,25.3
2022-08-01T10:39:02.091Z,25.9
2022-08-01T10:40:28.795Z,26.1
2022-08-01T10:41:02.122Z,26.1
2022-08-01T10:42:02.087Z,25.9
2022-08-01T10:43:02.079Z,25.3
2022-08-01T10:44:02.087Z,25.2
2022-08-01T10:45:02.054Z,25
2022-08-01T10:46:02.087Z,24.9
2022-08-01T10:47:02.131Z,24.9
2022-08-01T10:48:02.125Z,24.8
2022-08-01T10:49:02.184Z,24.6
2022-08-01T10:50:02.070Z,24.5
2022-08-01T10:51:02.143Z,24.6
2022-08-01T10:52:02.069Z,24.8
2022-08-01T10:53:05.786Z,25.1
2022-08-01T10:54:02.121Z,25.4
2022-08-01T10:55:02.125Z,25.8
2022-08-01T10:56:02.720Z,25.8
2022-08-01T10:57:02.076Z,25.8
2022-08-01T10:58:02.083Z,26.1
2022-08-01T10:59:02.078Z,25.9
2022-08-01T11:00:02.076Z,26.1
2022-08-01T11:01:02.164Z,25.9
2022-08-01T11:02:02.448Z,26
2022-08-01T11:03:02.346Z,26.3
2022-08-01T11:04:02.419Z,26.7
2022-08-01T11:05:02.182Z,27
2022-08-01T11:06:02.220Z,27.1
2022-08-01T11:07:02.393Z,26.9
2022-08-01T11:08:02.531Z,26.8
2022-08-01T11:09:02.559Z,27
2022-08-01T11:10:02.299Z,27.2
2022-08-01T11:11:02.117Z,27.4
2022-08-01T11:12:02.109Z,27.4
2022-08-01T11:13:02.130Z,27.3
2022-08-01T11:14:02.108Z,27.2
2022-08-01T11:15:02.777Z,26.7
2022-08-01T11:16:06.068Z,26.2
2022-08-01T11:17:02.075Z,26
2022-08-01T11:18:02.131Z,25.6
2022-08-01T11:19:02.085Z,25.1
2022-08-01T11:20:02.095Z,25.1
2022-08-01T11:21:57.157Z,25
2022-08-01T11:22:02.140Z,25
2022-08-01T11:23:02.880Z,25.1
2022-08-01T11:24:02.101Z,25.2
2022-08-01T11:25:02.109Z,25.4
2022-08-01T11:26:06.139Z,25.4
2022-08-01T11:27:02.099Z,25.9
2022-08-01T11:28:02.136Z,25.9
2022-08-01T11:29:19.330Z,26
2022-08-01T11:30:02.144Z,26.3
2022-08-01T11:31:02.094Z,26.4
2022-08-01T11:32:02.110Z,26.5
2022-08-01T11:33:11.624Z,26.7
2022-08-01T11:34:03.605Z,26.8
2022-08-01T11:35:02.097Z,26.7
2022-08-01T11:36:02.191Z,26.2
2022-08-01T11:37:03.180Z,26.3
2022-08-01T11:38:02.088Z,26
2022-08-01T11:39:02.106Z,26.1
2022-08-01T11:40:02.094Z,26.1
2022-08-01T11:41:02.119Z,26.1
2022-08-01T11:42:02.111Z,26.1
2022-08-01T11:43:02.151Z,26.2
2022-08-01T11:44:02.239Z,26.2
2022-08-01T11:45:02.098Z,26.4
2022-08-01T11:46:02.114Z,26.8
2022-08-01T11:47:02.137Z,27.2
2022-08-01T11:48:02.109Z,27.1
2022-08-01T11:49:02.144Z,27.2
2022-08-01T11:50:02.143Z,27.1
2022-08-01T11:51:02.450Z,27.1
2022-08-01T11:52:02.107Z,27.7
2022-08-01T11:53:02.109Z,28.2
2022-08-01T11:54:02.094Z,28.1
2022-08-01T11:55:02.135Z,28
2022-08-01T11:56:02.088Z,28.1
2022-08-01T11:57:02.166Z,27.7
2022-08-01T11:58:02.180Z,27.3
2022-08-01T11:59:02.105Z,26.9
2022-08-01T12:00:03.854Z,26.5
2022-08-01T12:01:02.111Z,26.4
2022-08-01T12:02:02.158Z,26.3
2022-08-01T12:03:04.497Z,26.1
2022-08-01T12:04:02.154Z,25.8
2022-08-01T12:05:02.152Z,25.4
2022-08-01T12:06:02.106Z,25.1
2022-08-01T12:07:02.114Z,24.9
2022-08-01T12:08:02.113Z,24.9
2022-08-01T12:09:02.159Z,24.7
2022-08-01T12:10:02.090Z,24.7
2022-08-01T12:11:02.777Z,24.7
2022-08-01T12:12:02.174Z,24.8
2022-08-01T12:13:02.106Z,24.8
2022-08-01T12:14:02.112Z,25
2022-08-01T12:15:02.186Z,25
2022-08-01T12:16:02.143Z,25.2
2022-08-01T12:17:02.109Z,25.4
2022-08-01T12:18:02.150Z,25.3
2022-08-01T12:19:02.198Z,25.2
2022-08-01T12:20:02.133Z,25.2
2022-08-01T12:21:02.187Z,25.1
2022-08-01T12:22:02.112Z,25.1
2022-08-01T12:23:02.205Z,25
2022-08-01T12:24:02.182Z,25
2022-08-01T12:25:02.204Z,25.4
2022-08-01T12:26:02.152Z,25.6
2022-08-01T12:27:02.112Z,25.8
2022-08-01T12:28:02.365Z,26
2022-08-01T12:29:02.127Z,26
2022-08-01T12:30:02.603Z,26
2022-08-01T12:31:02.109Z,26.1
2022-08-01T12:32:02.147Z,26.2
2022-08-01T12:33:02.108Z,26
2022-08-01T12:34:02.123Z,26
2022-08-01T12:35:02.120Z,26.1
2022-08-01T12:36:02.127Z,26.2
2022-08-01T12:37:03.648Z,26.5
2022-08-01T12:38:02.120Z,26.7
2022-08-01T12:39:02.155Z,26.7
2022-08-01T12:40:02.115Z,26.8
2022-08-01T12:41:02.109Z,26.9
2022-08-01T12:42:02.120Z,27.1
2022-08-01T12:43:02.109Z,27.1
2022-08-01T12:44:02.210Z,27.6
2022-08-01T12:45:02.150Z,27.9
2022-08-01T12:46:02.134Z,27.6
2022-08-01T12:47:02.112Z,27.6
2022-08-01T12:48:02.105Z,27.7
2022-08-01T12:49:02.192Z,27.8
2022-08-01T12:50:02.125Z,28.1
2022-08-01T12:51:02.380Z,28.6
2022-08-01T12:52:02.132Z,29.1
2022-08-01T12:53:02.150Z,29.4
2022-08-01T12:54:02.126Z,29.6
2022-08-01T12:55:02.139Z,29.2
2022-08-01T12:56:02.144Z,28.7
2022-08-01T12:57:02.149Z,28
2022-08-01T12:58:02.127Z,27.6
2022-08-01T12:59:02.111Z,27.6
2022-08-01T13:00:02.181Z,27.4
2022-08-01T13:01:02.167Z,27.4
2022-08-01T13:02:02.130Z,27.2
2022-08-01T13:03:02.128Z,26.8
2022-08-01T13:04:02.127Z,26.5
2022-08-01T13:05:02.124Z,26.5
2022-08-01T13:06:02.133Z,26.1
2022-08-01T13:07:02.145Z,25.6
2022-08-01T13:08:06.927Z,25.3
2022-08-01T13:09:02.134Z,25.3
2022-08-01T13:10:02.089Z,25.3
2022-08-01T13:11:02.118Z,25.3
2022-08-01T13:12:04.736Z,25.3
2022-08-01T13:13:02.119Z,25.4
2022-08-01T13:14:02.160Z,25.5
2022-08-01T13:15:02.105Z,25.6
2022-08-01T13:16:02.125Z,25.5
2022-08-01T13:17:02.128Z,25.6
2022-08-01T13:18:02.121Z,25.7
2022-08-01T13:19:02.126Z,25.7
2022-08-01T13:20:02.139Z,26
2022-08-01T13:21:02.150Z,26.1
2022-08-01T13:22:02.121Z,26.3
2022-08-01T13:23:02.128Z,26.4
2022-08-01T13:24:05.593Z,26.6